createdAt,value
2023-01-31T00:00:46.028Z,99581.97
2023-01-31T00:03:35.161Z,99580.94
2023-01-31T00:06:29.978Z,99582.78
2023-01-31T00:09:20.795Z,99578.66
2023-01-31T00:12:03.086Z,99584.44
2023-01-31T00:14:51.811Z,99588.06
2023-01-31T00:17:46.604Z,99594.13
2023-01-31T00:20:35.994Z,99578.97
2023-01-31T00:23:18.070Z,99584.09
2023-01-31T00:26:16.754Z,99574.72
2023-01-31T00:29:01.376Z,99581.00
2023-01-31T00:31:50.891Z,99580.69
2023-01-31T00:34:32.989Z,99573.00
2023-01-31T00:37:21.721Z,99581.69
2023-01-31T00:40:05.440Z,99575.19
2023-01-31T00:42:54.709Z,99571.53
2023-01-31T00:45:37.043Z,99572.13
2023-01-31T00:48:26.789Z,99581.13
2023-01-31T00:51:09.045Z,99582.13
2023-01-31T00:53:58.719Z,99583.72
2023-01-31T00:56:41.083Z,99578.06
2023-01-31T00:59:30.113Z,99574.31
2023-01-31T01:02:12.181Z,99587.63
2023-01-31T01:05:00.751Z,99592.16
2023-01-31T01:07:43.528Z,99585.78
2023-01-31T01:10:33.354Z,99589.69
2023-01-31T01:13:16.075Z,99591.09
2023-01-31T01:16:04.822Z,99603.72
2023-01-31T01:19:02.611Z,99601.31
2023-01-31T01:21:51.738Z,99599.72
2023-01-31T01:24:34.679Z,99602.66
2023-01-31T01:27:23.732Z,99598.50
2023-01-31T01:30:06.351Z,99601.84
2023-01-31T01:32:56.781Z,99604.25
2023-01-31T01:35:39.991Z,99605.03
2023-01-31T01:38:29.062Z,99603.38
2023-01-31T01:41:20.682Z,99604.28
2023-01-31T01:44:05.459Z,99605.13
2023-01-31T01:46:58.717Z,99611.09
2023-01-31T01:49:40.963Z,99614.81
2023-01-31T01:52:32.114Z,99622.34
2023-01-31T01:55:28.594Z,99623.16
2023-01-31T01:58:37.809Z,99628.31
2023-01-31T02:01:20.383Z,99625.25
2023-01-31T02:04:09.753Z,99631.38
2023-01-31T02:07:00.088Z,99634.03
2023-01-31T02:09:46.055Z,99641.16
2023-01-31T02:12:34.738Z,99633.22
2023-01-31T02:15:18.087Z,99624.41
2023-01-31T02:18:13.727Z,99637.72
2023-01-31T02:21:20.079Z,99633.56
2023-01-31T02:24:42.680Z,99636.59
2023-01-31T02:27:49.012Z,99630.66
2023-01-31T02:30:50.847Z,99638.97
2023-01-31T02:33:39.475Z,99638.59
2023-01-31T02:36:35.732Z,99636.22
2023-01-31T02:39:40.814Z,99648.69
2023-01-31T02:42:49.715Z,99655.66
2023-01-31T02:45:57.724Z,99657.13
2023-01-31T02:49:02.053Z,99657.00
2023-01-31T02:52:12.763Z,99663.97
2023-01-31T02:55:29.343Z,99668.56
2023-01-31T02:58:23.212Z,99677.75
2023-01-31T03:01:09.035Z,99675.28
2023-01-31T03:03:57.811Z,99680.59
2023-01-31T03:06:40.019Z,99688.25
2023-01-31T03:10:08.764Z,99678.25
2023-01-31T03:13:08.754Z,99703.19
2023-01-31T03:16:15.172Z,99712.84
2023-01-31T03:19:34.721Z,99721.41
2023-01-31T03:22:34.723Z,99734.44
2023-01-31T03:25:20.250Z,99735.53
2023-01-31T03:28:20.772Z,99740.63
2023-01-31T03:31:15.095Z,99751.31
2023-01-31T03:34:14.710Z,99752.78
2023-01-31T03:37:11.985Z,99757.56
2023-01-31T03:40:13.711Z,99767.84
2023-01-31T03:43:01.932Z,99770.88
2023-01-31T03:45:55.743Z,99767.94
2023-01-31T03:48:43.013Z,99769.16
2023-01-31T03:51:38.712Z,99769.38
2023-01-31T03:54:27.982Z,99777.53
2023-01-31T03:57:24.707Z,99778.06
2023-01-31T04:00:08.972Z,99781.75
2023-01-31T04:03:12.764Z,99789.72
2023-01-31T04:05:55.108Z,99791.72
2023-01-31T04:08:45.791Z,99790.25
2023-01-31T04:11:33.025Z,99787.22
2023-01-31T04:14:21.703Z,99798.31
2023-01-31T04:17:03.989Z,99797.44
2023-01-31T04:19:52.746Z,99799.38
2023-01-31T04:22:34.994Z,99811.41
2023-01-31T04:25:23.881Z,99817.38
2023-01-31T04:28:05.930Z,99818.13
2023-01-31T04:30:54.938Z,99825.56
2023-01-31T04:33:37.052Z,99831.38
2023-01-31T04:36:26.762Z,99842.41
2023-01-31T04:39:09.107Z,99832.94
2023-01-31T04:41:57.709Z,99842.44
2023-01-31T04:44:40.009Z,99834.13
2023-01-31T04:47:28.854Z,99844.22
2023-01-31T04:50:10.984Z,99847.22
2023-01-31T04:52:59.722Z,99844.19
2023-01-31T04:55:42.013Z,99831.53
2023-01-31T04:58:30.703Z,99829.41
2023-01-31T05:01:13.024Z,99819.34
2023-01-31T05:04:01.723Z,99818.94
2023-01-31T05:06:43.956Z,99818.31
2023-01-31T05:09:26.741Z,99819.94
2023-01-31T05:12:16.059Z,99825.94
2023-01-31T05:14:58.677Z,99822.56
2023-01-31T05:17:47.710Z,99824.00
2023-01-31T05:20:45.560Z,99815.81
2023-01-31T05:23:34.769Z,99809.91
2023-01-31T05:26:17.204Z,99807.16
2023-01-31T05:29:05.736Z,99804.66
2023-01-31T05:31:48.086Z,99796.50
2023-01-31T05:34:40.718Z,99789.16
2023-01-31T05:37:22.999Z,99776.31
2023-01-31T05:40:11.705Z,99792.09
2023-01-31T05:42:54.401Z,99788.47
2023-01-31T05:45:44.038Z,99785.03
2023-01-31T05:48:26.170Z,99781.94
2023-01-31T05:51:14.711Z,99785.09
2023-01-31T05:53:57.100Z,99777.78
2023-01-31T05:56:46.651Z,99769.72
2023-01-31T05:59:31.555Z,99767.19
2023-01-31T06:02:20.752Z,99767.44
2023-01-31T06:05:09.653Z,99765.47
2023-01-31T06:07:51.913Z,99773.56
2023-01-31T06:10:41.801Z,99765.09
2023-01-31T06:13:29.973Z,99760.88
2023-01-31T06:16:12.887Z,99755.47
2023-01-31T06:19:01.070Z,99756.03
2023-01-31T06:21:43.665Z,99747.34
2023-01-31T06:24:33.756Z,99748.16
2023-01-31T06:27:15.971Z,99741.22
2023-01-31T06:30:04.705Z,99744.66
2023-01-31T06:32:47.029Z,99746.63
2023-01-31T06:35:35.684Z,99738.19
2023-01-31T06:38:18.095Z,99735.53
2023-01-31T06:41:06.616Z,99735.75
2023-01-31T06:43:49.202Z,99723.91
2023-01-31T06:46:37.649Z,99731.31
2023-01-31T06:49:26.884Z,99724.03
2023-01-31T06:52:08.951Z,99714.09
2023-01-31T06:54:57.813Z,99719.13
2023-01-31T06:57:56.531Z,99720.97
2023-01-31T07:00:39.680Z,99722.75
2023-01-31T07:03:28.035Z,99709.63
2023-01-31T07:06:10.704Z,99708.81
2023-01-31T07:08:52.998Z,99699.53
2023-01-31T07:11:41.689Z,99685.63
2023-01-31T07:14:30.161Z,99683.16
2023-01-31T07:17:12.698Z,99678.25
2023-01-31T07:20:01.992Z,99670.63
2023-01-31T07:22:44.745Z,99662.31
2023-01-31T07:25:35.290Z,99650.56
2023-01-31T07:28:19.765Z,99650.28
2023-01-31T07:31:14.246Z,99637.50
2023-01-31T07:34:03.665Z,99638.78
2023-01-31T07:36:51.953Z,99630.50
2023-01-31T07:39:34.806Z,99632.59
2023-01-31T07:42:23.038Z,99626.75
2023-01-31T07:45:21.926Z,99615.31
2023-01-31T07:48:13.003Z,99608.25
2023-01-31T07:50:54.663Z,99604.59
2023-01-31T07:53:46.021Z,99597.81
2023-01-31T07:56:29.739Z,99597.22
2023-01-31T07:59:18.733Z,99600.16
2023-01-31T08:02:19.738Z,99597.38
2023-01-31T08:05:09.005Z,99596.59
2023-01-31T08:07:51.071Z,99587.78
2023-01-31T08:10:42.199Z,99575.16
2023-01-31T08:13:24.725Z,99583.47
2023-01-31T08:16:14.964Z,99577.75
2023-01-31T08:19:03.789Z,99570.00
2023-01-31T08:21:46.096Z,99561.25
2023-01-31T08:24:34.689Z,99564.59
2023-01-31T08:27:17.409Z,99560.06
2023-01-31T08:30:16.740Z,99553.28
2023-01-31T08:32:58.895Z,99565.00
2023-01-31T08:35:47.745Z,99556.91
2023-01-31T08:38:31.529Z,99556.09
2023-01-31T08:41:21.790Z,99551.59
2023-01-31T08:44:05.383Z,99559.47
2023-01-31T08:46:54.720Z,99555.81
2023-01-31T08:49:38.149Z,99548.47
2023-01-31T08:52:26.759Z,99540.78
2023-01-31T08:55:10.512Z,99538.75
2023-01-31T08:58:00.693Z,99537.13
2023-01-31T09:00:49.767Z,99533.25
2023-01-31T09:03:37.994Z,99522.59
2023-01-31T09:06:30.156Z,99527.53
2023-01-31T09:09:12.042Z,99525.66
2023-01-31T09:12:01.962Z,99524.25
2023-01-31T09:14:49.967Z,99522.84
2023-01-31T09:17:32.714Z,99519.00
2023-01-31T09:20:22.021Z,99519.31
2023-01-31T09:23:04.749Z,99507.38
2023-01-31T09:25:59.676Z,99513.94
2023-01-31T09:28:52.741Z,99508.91
2023-01-31T09:31:41.029Z,99502.59
2023-01-31T09:34:24.755Z,99500.75
2023-01-31T09:37:12.953Z,99509.50
2023-01-31T09:39:54.691Z,99513.69
2023-01-31T09:42:50.065Z,99498.88
2023-01-31T09:45:45.788Z,99493.50
2023-01-31T09:48:40.920Z,99490.22
2023-01-31T09:51:25.773Z,99489.03
2023-01-31T09:54:24.967Z,99475.94
2023-01-31T09:57:31.969Z,99482.03
2023-01-31T10:00:41.977Z,99481.75
2023-01-31T10:03:40.088Z,99483.03
2023-01-31T10:06:55.677Z,99473.78
2023-01-31T10:09:52.951Z,99474.34
2023-01-31T10:13:05.727Z,99465.47
2023-01-31T10:16:04.948Z,99459.00
2023-01-31T10:19:05.047Z,99468.81
2023-01-31T10:22:02.956Z,99472.44
2023-01-31T10:24:57.762Z,99471.03
2023-01-31T10:27:53.970Z,99464.34
2023-01-31T10:30:53.800Z,99472.47
2023-01-31T10:33:51.966Z,99466.53
2023-01-31T10:36:46.715Z,99457.50
2023-01-31T10:39:45.577Z,99460.56
2023-01-31T10:42:40.634Z,99473.41
2023-01-31T10:45:38.757Z,99458.00
2023-01-31T10:48:29.007Z,99458.66
2023-01-31T10:51:42.738Z,99458.16
2023-01-31T10:54:55.998Z,99462.84
2023-01-31T10:57:44.687Z,99467.84
2023-01-31T11:00:41.000Z,99458.22
2023-01-31T11:03:29.689Z,99461.53
2023-01-31T11:06:18.726Z,99454.97
2023-01-31T11:09:13.021Z,99455.66
2023-01-31T11:12:06.615Z,99461.31
2023-01-31T11:15:07.936Z,99456.09
2023-01-31T11:17:59.679Z,99449.53
2023-01-31T11:20:55.939Z,99444.59
2023-01-31T11:23:41.638Z,99443.25
2023-01-31T11:26:33.914Z,99438.00
2023-01-31T11:29:32.694Z,99433.22
2023-01-31T11:32:21.613Z,99432.31
2023-01-31T11:35:37.071Z,99427.03
2023-01-31T11:38:29.897Z,99423.81
2023-01-31T11:41:35.666Z,99418.97
2023-01-31T11:44:20.910Z,99411.59
2023-01-31T11:47:27.765Z,99417.09
2023-01-31T11:50:30.950Z,99424.06
2023-01-31T11:53:25.662Z,99417.97
2023-01-31T11:56:25.708Z,99417.50
2023-01-31T11:59:19.687Z,99411.00
2023-01-31T12:02:02.880Z,99406.88
2023-01-31T12:04:57.753Z,99417.31
2023-01-31T12:07:58.325Z,99417.41
2023-01-31T12:10:59.780Z,99410.03
2023-01-31T12:13:52.774Z,99398.53
2023-01-31T12:16:44.706Z,99406.81
2023-01-31T12:20:21.104Z,99409.53
2023-01-31T12:23:16.385Z,99401.19
2023-01-31T12:26:43.732Z,99398.38
2023-01-31T12:29:53.987Z,99397.94
2023-01-31T12:33:00.747Z,99402.13
2023-01-31T12:35:46.139Z,99396.78
2023-01-31T12:39:15.661Z,99401.09
2023-01-31T12:42:36.001Z,99397.66
2023-01-31T12:45:39.699Z,99399.31
2023-01-31T12:49:02.899Z,99401.56
2023-01-31T12:52:06.712Z,99398.72
2023-01-31T12:54:57.343Z,99393.75
2023-01-31T12:57:53.078Z,99399.34
2023-01-31T13:00:56.912Z,99399.34
2023-01-31T13:03:47.654Z,99408.66
2023-01-31T13:06:59.148Z,99402.66
2023-01-31T13:09:47.606Z,99408.84
2023-01-31T13:12:43.496Z,99413.75
2023-01-31T13:15:55.633Z,99407.56
2023-01-31T13:18:42.957Z,99404.88
2023-01-31T13:21:38.606Z,99414.00
2023-01-31T13:24:42.241Z,99416.72
2023-01-31T13:27:42.595Z,99419.59
2023-01-31T13:30:47.051Z,99414.63
2023-01-31T13:33:45.701Z,99429.06
2023-01-31T13:36:59.619Z,99431.16
2023-01-31T13:39:49.976Z,99440.84
2023-01-31T13:42:32.636Z,99441.88
2023-01-31T13:45:50.729Z,99441.06
2023-01-31T13:48:48.975Z,99448.88
2023-01-31T13:51:42.774Z,99447.03
2023-01-31T13:54:41.035Z,99443.13
2023-01-31T13:57:38.643Z,99450.94
2023-01-31T14:00:50.496Z,99457.50
2023-01-31T14:03:34.687Z,99450.94
2023-01-31T14:06:23.681Z,99466.56
2023-01-31T14:09:07.072Z,99462.66
2023-01-31T14:11:55.719Z,99469.66
2023-01-31T14:14:44.167Z,99471.69
2023-01-31T14:17:32.761Z,99474.16
2023-01-31T14:20:44.505Z,99482.56
2023-01-31T14:23:38.655Z,99473.50
2023-01-31T14:26:43.041Z,99480.09
2023-01-31T14:29:34.742Z,99480.28
2023-01-31T14:32:37.047Z,99475.97
2023-01-31T14:35:25.693Z,99480.09
2023-01-31T14:38:32.961Z,99465.50
2023-01-31T14:42:02.663Z,99465.09
2023-01-31T14:44:57.069Z,99465.09
2023-01-31T14:47:51.701Z,99481.28
2023-01-31T14:51:24.975Z,99487.47
2023-01-31T14:54:43.627Z,99488.06
2023-01-31T14:57:30.293Z,99480.88
2023-01-31T15:00:22.775Z,99497.28
2023-01-31T15:03:11.082Z,99499.97
2023-01-31T15:06:04.596Z,99503.63
2023-01-31T15:08:55.942Z,99503.41
2023-01-31T15:11:49.976Z,99508.75
2023-01-31T15:14:49.080Z,99511.63
2023-01-31T15:17:40.482Z,99517.34
2023-01-31T15:20:44.974Z,99517.34
2023-01-31T15:23:31.590Z,99520.25
2023-01-31T15:26:24.591Z,99515.75
2023-01-31T15:29:16.572Z,99518.59
2023-01-31T15:32:27.444Z,99512.84
2023-01-31T15:35:21.990Z,99509.97
2023-01-31T15:38:17.964Z,99507.88
2023-01-31T15:41:32.055Z,99509.97
2023-01-31T15:44:31.990Z,99519.34
2023-01-31T15:47:31.229Z,99518.50
2023-01-31T15:50:28.937Z,99516.84
2023-01-31T15:53:21.635Z,99509.22
2023-01-31T15:56:11.814Z,99513.53
2023-01-31T15:58:57.675Z,99521.28
2023-01-31T16:01:46.933Z,99526.63
2023-01-31T16:04:29.590Z,99519.06
2023-01-31T16:07:30.331Z,99520.22
2023-01-31T16:10:13.727Z,99523.72
2023-01-31T16:13:03.975Z,99524.91
2023-01-31T16:15:47.646Z,99507.06
2023-01-31T16:18:37.009Z,99508.88
2023-01-31T16:21:47.649Z,99505.25
2023-01-31T16:24:30.908Z,99501.97
2023-01-31T16:27:25.612Z,99501.09
2023-01-31T16:30:08.978Z,99500.81
2023-01-31T16:33:00.086Z,99507.97
2023-01-31T16:35:41.975Z,99499.81
2023-01-31T16:38:35.692Z,99505.06
2023-01-31T16:41:19.983Z,99499.69
2023-01-31T16:44:09.693Z,99504.19
2023-01-31T16:46:54.579Z,99501.06
2023-01-31T16:49:46.770Z,99497.66
2023-01-31T16:52:36.985Z,99505.66
2023-01-31T16:55:26.683Z,99507.72
2023-01-31T16:58:09.215Z,99508.38
2023-01-31T17:00:58.678Z,99507.00
2023-01-31T17:03:41.017Z,99499.50
2023-01-31T17:06:30.680Z,99507.66
2023-01-31T17:09:17.014Z,99512.75
2023-01-31T17:12:05.665Z,99515.13
2023-01-31T17:14:48.375Z,99520.66
2023-01-31T17:17:45.686Z,99521.53
2023-01-31T17:20:41.552Z,99523.41
2023-01-31T17:23:30.739Z,99529.97
2023-01-31T17:26:13.060Z,99528.44
2023-01-31T17:29:02.760Z,99524.19
2023-01-31T17:31:45.078Z,99515.38
2023-01-31T17:34:33.902Z,99504.16
2023-01-31T17:37:18.039Z,99506.31
2023-01-31T17:40:09.651Z,99507.81
2023-01-31T17:42:58.686Z,99509.63
2023-01-31T17:45:47.874Z,99515.47
2023-01-31T17:48:29.709Z,99512.16
2023-01-31T17:51:20.005Z,99508.31
2023-01-31T17:54:01.639Z,99501.47
2023-01-31T17:56:52.320Z,99504.56
2023-01-31T17:59:35.617Z,99501.63
2023-01-31T18:02:24.706Z,99503.91
2023-01-31T18:05:07.037Z,99517.38
2023-01-31T18:07:59.591Z,99511.88
2023-01-31T18:10:42.044Z,99522.31
2023-01-31T18:13:30.667Z,99522.63
2023-01-31T18:16:15.798Z,99523.66
2023-01-31T18:19:04.570Z,99526.00
2023-01-31T18:21:59.555Z,99533.44
2023-01-31T18:24:47.901Z,99529.50
2023-01-31T18:27:30.608Z,99523.09
2023-01-31T18:30:13.517Z,99531.63
2023-01-31T18:33:02.627Z,99530.13
2023-01-31T18:35:51.626Z,99522.06
2023-01-31T18:38:43.586Z,99519.13
2023-01-31T18:41:37.780Z,99516.72
2023-01-31T18:44:19.557Z,99510.22
2023-01-31T18:47:07.862Z,99498.09
2023-01-31T18:49:50.641Z,99508.38
2023-01-31T18:52:43.252Z,99500.75
2023-01-31T18:55:26.606Z,99499.44
2023-01-31T18:58:15.679Z,99501.97
2023-01-31T19:00:58.110Z,99496.81
2023-01-31T19:03:47.532Z,99498.53
2023-01-31T19:06:37.799Z,99494.00
2023-01-31T19:09:26.673Z,99482.97
2023-01-31T19:12:08.868Z,99480.69
2023-01-31T19:14:58.635Z,99476.78
2023-01-31T19:17:47.670Z,99474.25
2023-01-31T19:20:36.839Z,99480.72
2023-01-31T19:23:19.574Z,99472.41
2023-01-31T19:26:03.412Z,99465.19
2023-01-31T19:28:54.623Z,99461.38
2023-01-31T19:31:42.863Z,99465.81
2023-01-31T19:34:25.531Z,99460.88
2023-01-31T19:37:08.104Z,99465.84
2023-01-31T19:39:56.657Z,99457.94
2023-01-31T19:42:51.956Z,99457.44
2023-01-31T19:45:33.965Z,99455.63
2023-01-31T19:48:23.681Z,99448.91
2023-01-31T19:51:05.810Z,99458.34
2023-01-31T19:53:55.580Z,99462.09
2023-01-31T19:56:39.592Z,99446.44
2023-01-31T19:59:28.449Z,99450.47
2023-01-31T20:02:19.485Z,99441.69
2023-01-31T20:05:08.575Z,99438.06
2023-01-31T20:07:50.915Z,99439.47
2023-01-31T20:10:39.616Z,99435.31
2023-01-31T20:13:29.063Z,99425.25
2023-01-31T20:16:14.724Z,99423.59
2023-01-31T20:19:02.864Z,99424.44
2023-01-31T20:21:51.597Z,99420.50
2023-01-31T20:24:33.866Z,99422.50
2023-01-31T20:27:23.505Z,99420.06
2023-01-31T20:30:05.926Z,99419.25
2023-01-31T20:32:55.573Z,99417.59
2023-01-31T20:35:37.925Z,99419.13
2023-01-31T20:38:26.654Z,99424.94
2023-01-31T20:41:09.548Z,99419.78
2023-01-31T20:43:58.556Z,99423.44
2023-01-31T20:46:40.844Z,99418.69
2023-01-31T20:49:30.553Z,99420.25
2023-01-31T20:52:12.900Z,99414.84
2023-01-31T20:55:01.518Z,99412.03
2023-01-31T20:57:50.612Z,99414.56
2023-01-31T21:00:32.869Z,99404.06
2023-01-31T21:03:21.565Z,99402.59
2023-01-31T21:06:05.139Z,99403.22
2023-01-31T21:08:53.623Z,99407.63
2023-01-31T21:11:41.854Z,99408.16
2023-01-31T21:14:23.492Z,99402.41
2023-01-31T21:17:11.835Z,99394.63
2023-01-31T21:19:54.536Z,99392.25
2023-01-31T21:22:49.378Z,99388.03
2023-01-31T21:25:39.592Z,99377.31
2023-01-31T21:28:21.850Z,99372.75
2023-01-31T21:31:13.743Z,99376.41
2023-01-31T21:33:57.771Z,99364.25
2023-01-31T21:36:46.670Z,99361.03
2023-01-31T21:39:28.887Z,99357.50
2023-01-31T21:42:25.509Z,99357.06
2023-01-31T21:45:07.784Z,99356.06
2023-01-31T21:48:15.582Z,99349.56
2023-01-31T21:50:57.859Z,99343.81
2023-01-31T21:53:46.547Z,99343.06
2023-01-31T21:56:31.935Z,99341.69
2023-01-31T21:59:23.582Z,99339.19
2023-01-31T22:02:05.797Z,99337.88
2023-01-31T22:04:54.579Z,99327.88
2023-01-31T22:07:37.781Z,99332.66
2023-01-31T22:10:26.551Z,99331.34
2023-01-31T22:13:08.877Z,99321.94
2023-01-31T22:15:57.565Z,99320.66
2023-01-31T22:18:40.773Z,99319.66
2023-01-31T22:21:32.582Z,99321.06
2023-01-31T22:24:23.486Z,99319.28
2023-01-31T22:27:05.789Z,99325.16
2023-01-31T22:30:00.763Z,99330.38
2023-01-31T22:32:45.926Z,99320.63
2023-01-31T22:35:34.581Z,99327.06
2023-01-31T22:38:23.577Z,99316.84
2023-01-31T22:41:11.837Z,99318.56
2023-01-31T22:44:01.615Z,99330.09
2023-01-31T22:46:43.878Z,99325.00
2023-01-31T22:49:33.574Z,99330.53
2023-01-31T22:52:22.538Z,99326.00
2023-01-31T22:55:04.898Z,99327.16
2023-01-31T22:57:53.468Z,99323.06
2023-01-31T23:00:43.867Z,99331.84
2023-01-31T23:03:25.579Z,99328.44
2023-01-31T23:06:07.944Z,99333.03
2023-01-31T23:08:58.527Z,99329.81
2023-01-31T23:11:40.956Z,99326.81
2023-01-31T23:14:29.495Z,99330.91
2023-01-31T23:17:43.523Z,99323.03
2023-01-31T23:20:39.456Z,99321.41
2023-01-31T23:23:28.464Z,99320.22
2023-01-31T23:26:11.828Z,99321.31
2023-01-31T23:29:00.542Z,99318.00
2023-01-31T23:31:43.230Z,99312.63
2023-01-31T23:34:32.522Z,99313.50
2023-01-31T23:37:14.815Z,99327.50
2023-01-31T23:40:03.466Z,99323.28
2023-01-31T23:42:45.843Z,99330.88
2023-01-31T23:45:34.575Z,99326.69
2023-01-31T23:48:16.756Z,99333.81
2023-01-31T23:51:11.535Z,99322.34
2023-01-31T23:53:53.822Z,99331.44
2023-01-31T23:56:42.515Z,99331.66
2023-01-31T23:59:24.833Z,99330.78
